Time;durP1;ratioP1;P1;durP2;ratioP2;P2;SDS_P1;SDS_P2;PMS_P1;PMS_P2;Temp;Humidity;BMP_temperature;BMP_pressure;BME280_temperature;BME280_humidity;BME280_pressure;Samples;Min_cycle;Max_cycle;Signal;HPM_P1;HPM_P2
2022/04/13 00:00:56;;;;;;;12.82;8.93;;;8.80;99.90;;;;;;2519776;23;20439;-72
2022/04/13 00:01:56;;;;;;;14.90;9.30;;;8.80;99.90;;;;;;2519548;23;20501;-72
2022/04/13 00:02:57;;;;;;;14.35;9.57;;;8.80;99.90;;;;;;2519544;23;20030;-72
2022/04/13 00:03:58;;;;;;;13.18;9.73;;;8.80;99.90;;;;;;2519008;23;20006;-72
2022/04/13 00:04:58;;;;;;;17.63;10.70;;;8.80;99.90;;;;;;2519599;23;20515;-72
2022/04/13 00:05:59;;;;;;;13.32;9.52;;;8.80;99.90;;;;;;2519553;23;20006;-72
2022/04/13 00:07:00;;;;;;;13.82;9.80;;;8.80;99.90;;;;;;2519505;23;20014;-72
2022/04/13 00:08:05;;;;;;;13.85;9.23;;;8.70;99.90;;;;;;2518903;23;20460;-72
2022/04/13 00:09:07;;;;;;;14.00;9.85;;;8.70;99.90;;;;;;2519022;23;20036;-72
2022/04/13 00:10:08;;;;;;;14.85;9.60;;;8.60;99.90;;;;;;2518904;23;20006;-71
2022/04/13 00:11:09;;;;;;;14.32;9.52;;;8.60;99.90;;;;;;2518928;23;20010;-72
2022/04/13 00:12:10;;;;;;;13.63;9.27;;;8.60;99.90;;;;;;2518797;23;20014;-72
2022/04/13 00:13:10;;;;;;;12.73;9.18;;;8.50;99.90;;;;;;2518093;23;20071;-72
2022/04/13 00:14:11;;;;;;;12.70;9.35;;;8.50;99.90;;;;;;2519608;23;20033;-72
2022/04/13 00:15:11;;;;;;;14.13;9.45;;;8.40;99.90;;;;;;2519601;23;19998;-72
2022/04/13 00:16:12;;;;;;;14.02;9.85;;;8.40;99.90;;;;;;2519531;23;20010;-72
2022/04/13 00:17:13;;;;;;;14.13;9.43;;;8.40;99.90;;;;;;2519584;23;20399;-72
2022/04/13 00:18:13;;;;;;;12.30;8.88;;;8.30;99.90;;;;;;2519542;23;19998;-71
2022/04/13 00:19:14;;;;;;;15.18;9.27;;;8.30;99.90;;;;;;2519365;23;20007;-71
2022/04/13 00:20:15;;;;;;;12.80;9.23;;;8.30;99.90;;;;;;2519142;23;20739;-71
2022/04/13 00:21:15;;;;;;;14.68;9.77;;;8.30;99.90;;;;;;2519400;23;20005;-72
2022/04/13 00:22:16;;;;;;;13.10;9.30;;;8.20;99.90;;;;;;2519352;23;20480;-72
2022/04/13 00:23:16;;;;;;;13.65;9.48;;;8.20;99.90;;;;;;2518649;23;20305;-71
2022/04/13 00:24:17;;;;;;;13.60;9.43;;;8.20;99.90;;;;;;2519384;23;20381;-72
2022/04/13 00:25:18;;;;;;;14.93;10.15;;;8.20;99.90;;;;;;2519399;23;20011;-72
2022/04/13 00:26:18;;;;;;;14.05;9.50;;;8.20;99.90;;;;;;2519257;23;20403;-72
2022/04/13 00:27:19;;;;;;;13.70;9.45;;;8.20;99.90;;;;;;2519367;23;20098;-72
2022/04/13 00:28:19;;;;;;;14.27;9.70;;;8.10;99.90;;;;;;2519490;23;20030;-72
2022/04/13 00:29:20;;;;;;;14.70;9.65;;;8.10;99.90;;;;;;2519085;23;20332;-72
2022/04/13 00:30:21;;;;;;;13.70;9.25;;;8.10;99.90;;;;;;2519158;23;19994;-72
2022/04/13 00:31:22;;;;;;;11.43;8.77;;;8.00;99.90;;;;;;2519417;23;20015;-72
2022/04/13 00:32:22;;;;;;;12.90;8.93;;;8.00;99.90;;;;;;2519356;23;20003;-72
2022/04/13 00:33:23;;;;;;;12.57;9.15;;;8.00;99.90;;;;;;2518676;23;20786;-71
2022/04/13 00:34:24;;;;;;;12.25;8.57;;;8.00;99.90;;;;;;2518562;23;20563;-71
2022/04/13 00:35:25;;;;;;;12.45;8.40;;;8.00;99.90;;;;;;2518646;23;20018;-71
2022/04/13 00:36:25;;;;;;;11.70;8.23;;;7.90;99.90;;;;;;2519286;23;20002;-71
2022/04/13 00:37:26;;;;;;;11.70;8.38;;;7.90;99.90;;;;;;2519353;23;20093;-72
2022/04/13 00:38:27;;;;;;;11.73;8.07;;;7.90;99.90;;;;;;2519391;23;20041;-71
2022/04/13 00:39:27;;;;;;;10.77;7.88;;;7.90;99.90;;;;;;2518294;23;20017;-71
2022/04/13 00:40:28;;;;;;;11.90;8.23;;;7.90;99.90;;;;;;2518337;23;20077;-71
2022/04/13 00:41:29;;;;;;;10.30;7.30;;;7.90;99.90;;;;;;2518546;23;20013;-71
2022/04/13 00:42:29;;;;;;;10.68;8.13;;;7.90;99.90;;;;;;2518654;23;20007;-71
2022/04/13 00:43:30;;;;;;;11.70;8.43;;;7.90;99.90;;;;;;2518721;23;20010;-72
2022/04/13 00:44:30;;;;;;;11.88;8.38;;;7.90;99.90;;;;;;2519497;23;20002;-71
2022/04/13 00:45:31;;;;;;;11.38;8.00;;;7.80;99.90;;;;;;2519376;23;20006;-71
2022/04/13 00:46:32;;;;;;;10.85;8.45;;;7.90;99.90;;;;;;2519454;23;20002;-71
2022/04/13 00:47:39;;;;;;;12.25;8.60;;;7.90;99.90;;;;;;2519459;23;20482;-71
2022/04/13 00:48:42;;;;;;;12.07;8.70;;;7.90;99.90;;;;;;2518511;23;20597;-71
2022/04/13 00:49:43;;;;;;;12.77;8.93;;;7.90;99.90;;;;;;2518577;23;20070;-71
2022/04/13 00:50:44;;;;;;;16.00;9.43;;;7.80;99.90;;;;;;2518735;23;20030;-71
2022/04/13 00:51:44;;;;;;;12.93;9.27;;;7.90;99.90;;;;;;2518622;23;20011;-71
2022/04/13 00:52:47;;;;;;;13.65;9.38;;;7.80;99.90;;;;;;2518749;23;20002;-71
2022/04/13 00:53:49;;;;;;;13.23;9.25;;;7.80;99.90;;;;;;2517877;23;20010;-71
2022/04/13 00:54:53;;;;;;;11.80;8.43;;;7.80;99.90;;;;;;2518629;23;20089;-71
2022/04/13 00:55:55;;;;;;;11.95;8.73;;;7.80;99.90;;;;;;2519087;23;20002;-71
2022/04/13 00:56:57;;;;;;;11.80;8.90;;;7.80;99.90;;;;;;2519306;23;20002;-71
2022/04/13 00:57:59;;;;;;;12.75;8.90;;;7.80;99.90;;;;;;2518598;23;20021;-71
2022/04/13 00:59:05;;;;;;;12.05;8.32;;;7.80;99.90;;;;;;2518477;23;20006;-71
2022/04/13 01:00:09;;;;;;;11.45;8.20;;;7.80;99.90;;;;;;2518356;23;20044;-71
2022/04/13 01:01:10;;;;;;;10.52;8.23;;;7.80;99.90;;;;;;2519156;23;20742;-71
2022/04/13 01:02:12;;;;;;;11.35;8.07;;;7.70;99.90;;;;;;2519381;23;20009;-71
2022/04/13 01:03:13;;;;;;;11.63;8.10;;;7.70;99.90;;;;;;2518879;23;20061;-71
2022/04/13 01:04:15;;;;;;;12.18;7.78;;;7.70;99.90;;;;;;2519441;23;20011;-71
2022/04/13 01:05:18;;;;;;;11.95;7.85;;;7.70;99.90;;;;;;2519588;23;20053;-70
2022/04/13 01:06:19;;;;;;;11.23;7.72;;;7.70;99.90;;;;;;2519404;23;20010;-70
2022/04/13 01:07:22;;;;;;;11.93;8.40;;;7.70;99.90;;;;;;2519324;23;20010;-70
2022/04/13 01:08:25;;;;;;;11.57;8.50;;;7.70;99.90;;;;;;2518941;23;20022;-71
2022/04/13 01:09:26;;;;;;;10.98;7.60;;;7.70;99.90;;;;;;2518537;23;20002;-70
2022/04/13 01:10:28;;;;;;;11.88;8.07;;;7.70;99.90;;;;;;2506260;23;20014;-71
2022/04/13 01:11:28;;;;;;;12.00;7.80;;;7.70;99.90;;;;;;2519210;23;20010;-70
2022/04/13 01:12:29;;;;;;;11.45;8.00;;;7.60;99.90;;;;;;2518342;23;20045;-71
2022/04/13 01:13:30;;;;;;;12.27;8.25;;;7.60;99.90;;;;;;2517579;23;20018;-71
2022/04/13 01:14:30;;;;;;;11.40;8.25;;;7.60;99.90;;;;;;2519203;23;20010;-71
2022/04/13 01:15:31;;;;;;;12.52;8.32;;;7.60;99.90;;;;;;2519143;23;20033;-71
2022/04/13 01:16:34;;;;;;;12.02;8.15;;;7.60;99.90;;;;;;2519158;23;20025;-70
2022/04/13 01:17:35;;;;;;;11.40;8.07;;;7.60;99.90;;;;;;2519345;23;20003;-71
2022/04/13 01:18:35;;;;;;;10.95;7.85;;;7.60;99.90;;;;;;2519256;23;20016;-71
2022/04/13 01:19:36;;;;;;;12.77;8.32;;;7.60;99.90;;;;;;2519245;23;20007;-70
2022/04/13 01:20:42;;;;;;;13.07;8.45;;;7.60;99.90;;;;;;2519101;23;20006;-70
2022/04/13 01:21:47;;;;;;;12.93;8.40;;;7.60;99.90;;;;;;2518595;23;20373;-70
2022/04/13 01:22:47;;;;;;;11.52;8.13;;;7.60;99.90;;;;;;2518664;23;20006;-71
2022/04/13 01:23:50;;;;;;;12.80;8.57;;;7.60;99.90;;;;;;2517776;23;20033;-69
2022/04/13 01:24:51;;;;;;;10.93;8.27;;;7.50;99.90;;;;;;2518546;23;20010;-70
2022/04/13 01:25:54;;;;;;;11.15;7.82;;;7.50;99.90;;;;;;2519208;23;20010;-70
2022/04/13 01:26:55;;;;;;;12.43;8.40;;;7.50;99.90;;;;;;2518221;23;20018;-70
2022/04/13 01:27:55;;;;;;;12.68;8.10;;;7.50;99.90;;;;;;2518485;23;20006;-70
2022/04/13 01:28:56;;;;;;;14.07;8.02;;;7.50;99.90;;;;;;2519223;23;20463;-70
2022/04/13 01:29:56;;;;;;;12.55;8.60;;;7.50;99.90;;;;;;2518801;23;20058;-71
2022/04/13 01:30:57;;;;;;;14.00;8.85;;;7.50;99.90;;;;;;2519099;23;20044;-71
2022/04/13 01:31:58;;;;;;;14.85;9.27;;;7.50;99.90;;;;;;2518962;23;20010;-70
2022/04/13 01:32:59;;;;;;;13.52;9.05;;;7.50;99.90;;;;;;2519242;23;20100;-70
2022/04/13 01:34:00;;;;;;;12.50;8.98;;;7.40;99.90;;;;;;2518444;23;20003;-70
2022/04/13 01:35:01;;;;;;;13.05;8.73;;;7.40;99.90;;;;;;2519196;23;20006;-70
2022/04/13 01:36:02;;;;;;;12.27;8.88;;;7.50;99.90;;;;;;2518292;23;20463;-70
2022/04/13 01:37:03;;;;;;;14.73;9.10;;;7.40;99.90;;;;;;2518524;23;20427;-71
2022/04/13 01:38:04;;;;;;;12.48;8.88;;;7.40;99.90;;;;;;2519468;23;20002;-72
2022/04/13 01:39:09;;;;;;;14.50;8.88;;;7.40;99.90;;;;;;2518788;23;20558;-70
2022/04/13 01:40:10;;;;;;;12.55;8.82;;;7.40;99.90;;;;;;2518332;23;20002;-71
2022/04/13 01:41:11;;;;;;;14.45;9.32;;;7.40;99.90;;;;;;2519355;23;20002;-72
2022/04/13 01:42:12;;;;;;;12.90;9.00;;;7.40;99.90;;;;;;2519007;23;20074;-72
2022/04/13 01:43:12;;;;;;;14.23;9.13;;;7.40;99.90;;;;;;2518406;23;19998;-71
2022/04/13 01:44:15;;;;;;;13.27;8.60;;;7.40;99.90;;;;;;2518363;23;20021;-70
2022/04/13 01:45:19;;;;;;;13.98;9.35;;;7.30;99.90;;;;;;2518322;23;20010;-70
2022/04/13 01:46:20;;;;;;;13.52;8.90;;;7.30;99.90;;;;;;2518385;23;20010;-71
2022/04/13 01:47:20;;;;;;;13.82;9.00;;;7.30;99.90;;;;;;2519052;23;20356;-70
2022/04/13 01:48:21;;;;;;;13.30;8.70;;;7.30;99.90;;;;;;2518361;23;20013;-70
2022/04/13 01:49:22;;;;;;;13.27;9.05;;;7.30;99.90;;;;;;2518415;23;20061;-70
2022/04/13 01:50:22;;;;;;;14.32;9.05;;;7.30;99.90;;;;;;2518721;23;20011;-71
2022/04/13 01:51:23;;;;;;;13.57;9.13;;;7.30;99.90;;;;;;2518697;23;20010;-71
2022/04/13 01:52:24;;;;;;;15.02;9.68;;;7.30;99.90;;;;;;2519121;23;20003;-71
2022/04/13 01:53:27;;;;;;;14.02;9.77;;;7.30;99.90;;;;;;2518291;23;20379;-72
2022/04/13 01:54:28;;;;;;;14.45;9.18;;;7.30;99.90;;;;;;2518395;23;20105;-71
2022/04/13 01:55:28;;;;;;;13.35;9.40;;;7.20;99.90;;;;;;2518319;23;20006;-71
2022/04/13 01:56:29;;;;;;;15.65;9.93;;;7.20;99.90;;;;;;2518979;23;20002;-72
2022/04/13 01:57:29;;;;;;;14.15;9.82;;;7.20;99.90;;;;;;2519144;23;20431;-71
2022/04/13 01:58:31;;;;;;;14.52;9.50;;;7.20;99.90;;;;;;2519214;23;20002;-71
2022/04/13 01:59:32;;;;;;;14.32;9.57;;;7.20;99.90;;;;;;2519038;23;20057;-71
2022/04/13 02:00:33;;;;;;;13.50;9.43;;;7.20;99.90;;;;;;2518903;23;20006;-71
2022/04/13 02:01:35;;;;;;;13.85;9.90;;;7.20;99.90;;;;;;2519124;23;20037;-71
2022/04/13 02:02:36;;;;;;;15.60;10.05;;;7.20;99.90;;;;;;2517976;23;20518;-71
2022/04/13 02:03:37;;;;;;;14.82;9.98;;;7.20;99.90;;;;;;2517603;23;20071;-71
2022/04/13 02:04:37;;;;;;;13.20;9.40;;;7.20;99.90;;;;;;2518054;23;20070;-71
2022/04/13 02:05:38;;;;;;;13.38;9.43;;;7.10;99.90;;;;;;2518250;23;20010;-71
2022/04/13 02:06:38;;;;;;;12.55;9.20;;;7.10;99.90;;;;;;2518861;23;20583;-73
2022/04/13 02:07:39;;;;;;;13.63;9.23;;;7.20;99.90;;;;;;2518962;23;20089;-70
2022/04/13 02:08:40;;;;;;;12.90;8.77;;;7.20;99.90;;;;;;2518970;23;20085;-69
2022/04/13 02:09:40;;;;;;;15.23;9.48;;;7.10;99.90;;;;;;2518815;23;20007;-71
2022/04/13 02:10:41;;;;;;;13.20;8.82;;;7.20;99.90;;;;;;2518734;23;20458;-70
2022/04/13 02:11:42;;;;;;;13.45;9.10;;;7.20;99.90;;;;;;2519205;23;20094;-70
2022/04/13 02:12:44;;;;;;;13.70;8.65;;;7.20;99.90;;;;;;2519262;23;20451;-70
2022/04/13 02:13:45;;;;;;;13.32;9.15;;;7.10;99.90;;;;;;2518277;23;20074;-70
2022/04/13 02:14:45;;;;;;;13.32;9.32;;;7.10;99.90;;;;;;2519081;23;20431;-70
2022/04/13 02:15:48;;;;;;;12.63;8.93;;;7.10;99.90;;;;;;2518865;23;20594;-70
2022/04/13 02:16:48;;;;;;;13.85;8.82;;;7.10;99.90;;;;;;2519131;23;20006;-70
2022/04/13 02:17:49;;;;;;;13.65;8.77;;;7.10;99.90;;;;;;2519035;23;20032;-70
2022/04/13 02:18:50;;;;;;;12.48;8.30;;;7.10;99.90;;;;;;2519216;23;19998;-70
2022/04/13 02:19:50;;;;;;;13.15;8.82;;;7.10;99.90;;;;;;2519032;23;20071;-70
2022/04/13 02:20:51;;;;;;;13.57;8.50;;;7.10;99.90;;;;;;2518779;23;20613;-71
2022/04/13 02:21:51;;;;;;;13.82;9.02;;;7.10;99.90;;;;;;2518878;23;20041;-70
2022/04/13 02:22:52;;;;;;;13.77;8.95;;;7.10;99.90;;;;;;2518897;23;20013;-70
2022/04/13 02:23:53;;;;;;;14.50;8.98;;;7.00;99.90;;;;;;2518224;23;20122;-71
2022/04/13 02:24:53;;;;;;;13.30;8.38;;;7.00;99.90;;;;;;2518884;23;20010;-70
2022/04/13 02:25:54;;;;;;;13.52;8.55;;;7.00;99.90;;;;;;2518865;23;20050;-71
2022/04/13 02:26:54;;;;;;;12.07;8.43;;;7.00;99.90;;;;;;2519051;23;20073;-71
2022/04/13 02:27:55;;;;;;;13.68;8.93;;;7.00;99.90;;;;;;2518919;23;20093;-71
2022/04/13 02:28:57;;;;;;;12.13;8.27;;;7.00;99.90;;;;;;2519021;23;20029;-71
2022/04/13 02:29:57;;;;;;;13.05;8.98;;;7.00;99.90;;;;;;2518795;23;20347;-72
2022/04/13 02:30:58;;;;;;;12.93;8.70;;;7.00;99.90;;;;;;2518946;23;20012;-70
2022/04/13 02:31:59;;;;;;;12.77;8.90;;;7.00;99.90;;;;;;2518611;23;20010;-72
2022/04/13 02:33:00;;;;;;;13.65;8.85;;;7.00;99.90;;;;;;2518885;23;20034;-71
2022/04/13 02:34:03;;;;;;;11.95;8.43;;;6.90;99.90;;;;;;2518405;23;20003;-71
2022/04/13 02:35:04;;;;;;;12.40;8.80;;;7.00;99.90;;;;;;2519128;23;20002;-71
2022/04/13 02:36:06;;;;;;;12.75;8.77;;;6.90;99.90;;;;;;2518971;23;20006;-70
2022/04/13 02:37:09;;;;;;;12.35;8.70;;;6.90;99.90;;;;;;2519055;23;19999;-71
2022/04/13 02:38:10;;;;;;;13.13;8.68;;;6.90;99.90;;;;;;2518326;23;20104;-70
2022/04/13 02:39:11;;;;;;;12.15;8.48;;;6.90;99.90;;;;;;2518294;23;20452;-70
2022/04/13 02:40:14;;;;;;;12.80;8.90;;;6.90;99.90;;;;;;2518785;23;20002;-70
2022/04/13 02:41:15;;;;;;;14.30;8.80;;;6.90;99.90;;;;;;2519106;23;20014;-70
2022/04/13 02:42:16;;;;;;;13.10;8.73;;;6.90;99.90;;;;;;2518086;23;20030;-71
2022/04/13 02:43:16;;;;;;;14.43;9.57;;;6.90;99.90;;;;;;2517471;23;20030;-70
2022/04/13 02:44:17;;;;;;;13.75;9.25;;;6.90;99.90;;;;;;2518950;23;20391;-71
2022/04/13 02:45:17;;;;;;;15.80;10.02;;;6.90;99.90;;;;;;2519151;23;19999;-71
2022/04/13 02:46:18;;;;;;;15.25;9.75;;;6.90;99.90;;;;;;2518997;23;20085;-70
2022/04/13 02:47:19;;;;;;;15.52;9.63;;;6.80;99.90;;;;;;2519124;23;20379;-70
2022/04/13 02:48:20;;;;;;;15.15;9.80;;;6.80;99.90;;;;;;2519126;23;20006;-71
2022/04/13 02:49:20;;;;;;;13.98;9.48;;;6.80;99.90;;;;;;2519123;23;20006;-71
2022/04/13 02:50:21;;;;;;;14.60;9.77;;;6.80;99.90;;;;;;2518760;23;20030;-72
2022/04/13 02:51:21;;;;;;;15.32;9.60;;;6.80;99.90;;;;;;2518942;23;20080;-73
2022/04/13 02:52:25;;;;;;;15.68;9.65;;;6.80;99.90;;;;;;2519031;23;20026;-71
2022/04/13 02:53:26;;;;;;;15.57;9.95;;;6.80;99.90;;;;;;2518225;23;20011;-70
2022/04/13 02:54:27;;;;;;;14.30;10.02;;;6.80;99.90;;;;;;2519025;23;20010;-71
2022/04/13 02:55:27;;;;;;;15.90;10.20;;;6.70;99.90;;;;;;2519245;23;20431;-70
2022/04/13 02:56:28;;;;;;;15.77;10.35;;;6.70;99.90;;;;;;2519063;23;20391;-71
2022/04/13 02:57:28;;;;;;;16.70;10.52;;;6.80;99.90;;;;;;2519018;23;20010;-71
2022/04/13 02:58:29;;;;;;;16.48;10.65;;;6.70;99.90;;;;;;2518975;23;20014;-71
2022/04/13 02:59:29;;;;;;;17.88;11.15;;;6.70;99.90;;;;;;2519089;23;20014;-70
2022/04/13 03:00:30;;;;;;;16.48;10.73;;;6.70;99.90;;;;;;2518610;23;20093;-70
2022/04/13 03:01:31;;;;;;;17.50;10.65;;;6.70;99.90;;;;;;2518972;23;20085;-71
2022/04/13 03:02:31;;;;;;;16.33;10.82;;;6.80;99.90;;;;;;2519496;23;20034;-70
2022/04/13 03:03:33;;;;;;;16.05;10.52;;;6.80;99.90;;;;;;2519316;23;20066;-71
2022/04/13 03:04:34;;;;;;;16.00;10.52;;;6.70;99.90;;;;;;2518950;23;20006;-70
2022/04/13 03:05:36;;;;;;;17.77;10.95;;;6.80;99.90;;;;;;2519248;23;20006;-71
2022/04/13 03:06:37;;;;;;;21.08;11.52;;;6.80;99.90;;;;;;2519088;23;20360;-71
2022/04/13 03:07:38;;;;;;;17.63;11.10;;;6.80;99.90;;;;;;2519069;23;20058;-71
2022/04/13 03:08:38;;;;;;;16.70;10.75;;;6.90;99.90;;;;;;2519774;23;20007;-70
2022/04/13 03:09:39;;;;;;;17.20;10.77;;;6.90;99.90;;;;;;2518875;23;20010;-71
2022/04/13 03:10:40;;;;;;;19.77;11.20;;;6.90;99.90;;;;;;2518845;23;20033;-71
2022/04/13 03:11:41;;;;;;;16.15;10.23;;;6.90;99.90;;;;;;2519768;23;20025;-70
2022/04/13 03:12:42;;;;;;;17.05;10.57;;;6.90;99.90;;;;;;2519674;23;20620;-71
2022/04/13 03:13:43;;;;;;;14.77;9.90;;;6.90;99.90;;;;;;2519084;23;20691;-71
2022/04/13 03:14:43;;;;;;;17.40;10.93;;;7.00;99.90;;;;;;2519070;23;20006;-71
2022/04/13 03:15:44;;;;;;;16.25;10.10;;;7.00;99.90;;;;;;2519085;23;20002;-70
2022/04/13 03:16:44;;;;;;;17.15;10.80;;;7.00;99.90;;;;;;2519699;23;20346;-70
2022/04/13 03:17:45;;;;;;;19.23;11.70;;;7.00;99.90;;;;;;2519977;23;20030;-71
2022/04/13 03:18:46;;;;;;;18.85;11.48;;;7.10;99.90;;;;;;2519957;23;20009;-70
2022/04/13 03:19:46;;;;;;;16.77;10.80;;;7.20;99.90;;;;;;2519751;23;20021;-69
2022/04/13 03:20:47;;;;;;;19.52;11.30;;;7.20;99.90;;;;;;2519366;23;20102;-70
2022/04/13 03:21:51;;;;;;;19.90;11.90;;;7.30;99.90;;;;;;2518876;23;20033;-71
2022/04/13 03:22:52;;;;;;;19.58;11.10;;;7.40;99.90;;;;;;2518924;23;20007;-71
2022/04/13 03:23:52;;;;;;;19.40;11.80;;;7.50;99.90;;;;;;2518235;23;20010;-70
2022/04/13 03:24:53;;;;;;;18.20;11.27;;;7.60;99.90;;;;;;2519593;23;20006;-70
2022/04/13 03:25:55;;;;;;;18.85;11.18;;;7.70;99.90;;;;;;2519753;23;20109;-70
2022/04/13 03:26:56;;;;;;;19.58;11.52;;;7.80;99.90;;;;;;2519595;23;20069;-70
2022/04/13 03:27:57;;;;;;;21.13;12.02;;;7.80;99.90;;;;;;2519833;23;20011;-70
2022/04/13 03:28:57;;;;;;;17.80;10.77;;;7.90;99.90;;;;;;2519837;23;20016;-70
2022/04/13 03:29:58;;;;;;;18.42;11.35;;;8.00;99.90;;;;;;2519526;23;20077;-70
2022/04/13 03:30:58;;;;;;;19.48;10.80;;;8.00;99.90;;;;;;2519674;23;20014;-70
2022/04/13 03:31:59;;;;;;;19.17;11.15;;;8.00;99.90;;;;;;2519817;23;20480;-70
2022/04/13 03:33:00;;;;;;;17.02;10.43;;;8.00;99.90;;;;;;2519726;23;20006;-70
2022/04/13 03:34:00;;;;;;;20.30;11.02;;;8.00;99.90;;;;;;2519168;23;20018;-71
2022/04/13 03:35:01;;;;;;;19.75;11.50;;;8.00;99.90;;;;;;2519828;23;20018;-70
2022/04/13 03:36:01;;;;;;;21.27;11.25;;;8.20;98.30;;;;;;2519966;23;20554;-72
2022/04/13 03:37:03;;;;;;;21.45;11.98;;;8.30;97.30;;;;;;2520268;23;20030;-70
2022/04/13 03:38:03;;;;;;;19.63;11.52;;;8.50;96.30;;;;;;2520384;23;20059;-70
2022/04/13 03:39:04;;;;;;;21.50;11.35;;;8.50;95.50;;;;;;2520317;23;20122;-70
2022/04/13 03:40:06;;;;;;;19.70;11.50;;;8.60;95.00;;;;;;2519833;23;20009;-70
2022/04/13 03:41:07;;;;;;;19.80;11.43;;;8.60;94.50;;;;;;2519269;23;20045;-70
2022/04/13 03:42:07;;;;;;;21.25;12.05;;;8.70;93.80;;;;;;2519285;23;19998;-70
2022/04/13 03:43:08;;;;;;;20.23;11.75;;;8.70;93.20;;;;;;2518757;23;20006;-71
2022/04/13 03:44:09;;;;;;;19.10;11.45;;;8.80;92.40;;;;;;2519880;23;20089;-71
2022/04/13 03:45:13;;;;;;;19.60;11.80;;;8.80;92.20;;;;;;2519862;23;20006;-71
2022/04/13 03:46:14;;;;;;;18.30;11.00;;;8.80;92.00;;;;;;2519948;23;20009;-71
2022/04/13 03:47:15;;;;;;;21.80;11.95;;;8.90;91.70;;;;;;2520063;23;20081;-71
2022/04/13 03:48:15;;;;;;;18.65;11.77;;;8.90;91.90;;;;;;2519807;23;20347;-71
2022/04/13 03:49:16;;;;;;;20.60;12.00;;;8.80;91.60;;;;;;2519447;23;20101;-70
2022/04/13 03:50:17;;;;;;;20.35;11.88;;;8.90;91.60;;;;;;2519017;23;20006;-71
2022/04/13 03:51:17;;;;;;;19.42;11.93;;;8.80;91.70;;;;;;2520340;23;19998;-70
2022/04/13 03:52:18;;;;;;;19.27;11.32;;;8.80;91.80;;;;;;2520469;23;20069;-72
2022/04/13 03:53:18;;;;;;;18.83;11.65;;;8.80;91.60;;;;;;2519851;23;20006;-71
2022/04/13 03:54:19;;;;;;;18.75;11.73;;;8.80;91.50;;;;;;2519392;23;20069;-70
2022/04/13 03:55:22;;;;;;;20.50;11.70;;;8.80;91.60;;;;;;2508057;23;20013;-70
2022/04/13 03:56:23;;;;;;;19.85;12.05;;;8.80;91.50;;;;;;2507663;23;19998;-71
2022/04/13 03:57:23;;;;;;;19.80;11.70;;;8.80;91.50;;;;;;2519336;23;20006;-71
2022/04/13 03:58:25;;;;;;;19.60;11.40;;;8.80;91.00;;;;;;2519810;23;20452;-71
2022/04/13 03:59:26;;;;;;;19.50;11.23;;;8.80;91.00;;;;;;2519780;23;20073;-70
2022/04/13 04:00:27;;;;;;;17.58;11.52;;;8.80;91.20;;;;;;2520969;23;20011;-71
2022/04/13 04:01:28;;;;;;;23.40;11.75;;;8.80;91.10;;;;;;2519759;23;20056;-70
2022/04/13 04:02:28;;;;;;;21.13;12.45;;;8.80;91.00;;;;;;2520549;23;20034;-70
2022/04/13 04:03:29;;;;;;;19.77;12.25;;;8.80;91.00;;;;;;2519154;23;20459;-71
2022/04/13 04:04:29;;;;;;;21.55;13.38;;;8.80;91.10;;;;;;2519927;23;20671;-71
2022/04/13 04:05:30;;;;;;;18.38;11.75;;;8.70;91.20;;;;;;2520462;23;20006;-71
2022/04/13 04:06:30;;;;;;;22.08;12.20;;;8.80;90.90;;;;;;2520361;23;20002;-71
2022/04/13 04:07:31;;;;;;;21.70;11.95;;;8.80;91.00;;;;;;2520386;23;20037;-71
2022/04/13 04:08:35;;;;;;;19.48;11.27;;;8.80;90.60;;;;;;2520562;23;20375;-73
2022/04/13 04:09:36;;;;;;;19.50;11.55;;;8.90;91.40;;;;;;2520405;23;20013;-71
2022/04/13 04:10:37;;;;;;;18.95;11.02;;;8.90;90.80;;;;;;2520161;23;20713;-70
2022/04/13 04:11:37;;;;;;;19.48;11.55;;;9.00;91.10;;;;;;2521085;23;20040;-70
2022/04/13 04:12:40;;;;;;;19.33;11.55;;;8.90;90.70;;;;;;2521549;23;20009;-70
2022/04/13 04:13:40;;;;;;;21.13;11.48;;;8.90;90.70;;;;;;2520664;23;20010;-72
2022/04/13 04:14:41;;;;;;;19.60;11.52;;;9.00;90.60;;;;;;2520429;23;20006;-70
2022/04/13 04:15:41;;;;;;;20.60;11.57;;;9.00;90.20;;;;;;2520030;23;20011;-71
2022/04/13 04:16:42;;;;;;;20.17;12.07;;;9.00;90.20;;;;;;2519992;23;20503;-71
2022/04/13 04:17:43;;;;;;;21.23;11.60;;;9.00;90.20;;;;;;2519393;23;20058;-71
2022/04/13 04:18:45;;;;;;;20.08;11.63;;;9.00;90.40;;;;;;2507430;23;20014;-71
2022/04/13 04:19:46;;;;;;;22.17;12.05;;;9.00;90.70;;;;;;2507460;23;20010;-71
2022/04/13 04:20:46;;;;;;;19.77;11.35;;;9.00;91.20;;;;;;2519460;23;20065;-71
2022/04/13 04:21:47;;;;;;;19.02;11.77;;;9.00;90.30;;;;;;2519808;23;20435;-71
2022/04/13 04:22:47;;;;;;;18.25;11.55;;;9.00;90.60;;;;;;2519866;23;20090;-71
2022/04/13 04:23:48;;;;;;;21.92;11.85;;;8.90;90.90;;;;;;2518909;23;20010;-71
2022/04/13 04:24:49;;;;;;;22.55;14.05;;;8.90;90.60;;;;;;2519624;23;20010;-71
2022/04/13 04:25:49;;;;;;;19.42;12.27;;;8.90;90.20;;;;;;2518611;23;20006;-71
2022/04/13 04:26:50;;;;;;;23.38;13.15;;;8.90;90.30;;;;;;2518964;23;20007;-71
2022/04/13 04:27:50;;;;;;;20.40;12.27;;;8.90;90.80;;;;;;2519455;23;20010;-71
2022/04/13 04:28:51;;;;;;;18.27;11.95;;;8.90;90.00;;;;;;2519758;23;20017;-70
2022/04/13 04:29:52;;;;;;;20.52;11.60;;;8.90;90.20;;;;;;2519696;23;20498;-70
2022/04/13 04:30:52;;;;;;;17.08;11.32;;;8.90;90.20;;;;;;2518364;23;20010;-71
2022/04/13 04:31:54;;;;;;;20.55;11.82;;;8.90;90.30;;;;;;2518945;23;20006;-71
2022/04/13 04:32:54;;;;;;;20.30;12.00;;;8.90;91.00;;;;;;2519372;23;20502;-70
2022/04/13 04:33:55;;;;;;;21.10;12.15;;;8.90;90.10;;;;;;2518286;23;20026;-71
2022/04/13 04:34:56;;;;;;;19.38;11.27;;;9.00;90.50;;;;;;2519397;23;20010;-71
2022/04/13 04:35:56;;;;;;;19.02;12.10;;;9.00;90.80;;;;;;2519469;23;20744;-70
2022/04/13 04:36:57;;;;;;;19.27;12.07;;;9.00;90.40;;;;;;2519647;23;20094;-70
2022/04/13 04:37:57;;;;;;;19.67;11.82;;;9.00;89.90;;;;;;2518646;23;20010;-70
2022/04/13 04:38:58;;;;;;;22.50;12.93;;;9.00;89.70;;;;;;2518755;23;20005;-70
2022/04/13 04:39:58;;;;;;;20.67;12.15;;;9.00;90.30;;;;;;2519310;23;20002;-70
2022/04/13 04:40:59;;;;;;;21.98;12.27;;;9.00;89.70;;;;;;2519586;23;20002;-70
2022/04/13 04:42:02;;;;;;;20.65;12.20;;;9.00;88.90;;;;;;2519366;23;20002;-70
2022/04/13 04:43:02;;;;;;;20.83;12.23;;;9.10;89.00;;;;;;2518719;23;20083;-70
2022/04/13 04:44:03;;;;;;;21.13;11.95;;;9.10;89.50;;;;;;2517763;23;20014;-70
2022/04/13 04:45:04;;;;;;;19.55;11.93;;;9.10;88.70;;;;;;2519481;23;20014;-71
2022/04/13 04:46:05;;;;;;;21.35;13.13;;;9.10;88.50;;;;;;2519436;23;20356;-70
2022/04/13 04:47:06;;;;;;;24.05;13.43;;;9.10;87.70;;;;;;2519526;23;20624;-71
2022/04/13 04:48:09;;;;;;;22.98;13.30;;;9.20;89.50;;;;;;2519417;23;20014;-70
2022/04/13 04:49:09;;;;;;;25.27;12.48;;;9.20;88.50;;;;;;2519233;23;20010;-72
2022/04/13 04:50:10;;;;;;;23.58;12.35;;;9.20;86.80;;;;;;2519219;23;20532;-71
2022/04/13 04:51:15;;;;;;;21.25;11.95;;;9.30;86.80;;;;;;2519729;23;20454;-71
2022/04/13 04:52:16;;;;;;;19.25;12.00;;;9.30;87.40;;;;;;2519786;23;20022;-72
2022/04/13 04:53:16;;;;;;;21.83;12.48;;;9.30;86.10;;;;;;2519233;23;20724;-72
2022/04/13 04:54:17;;;;;;;18.98;11.73;;;9.40;86.20;;;;;;2519912;23;20065;-72
2022/04/13 04:55:18;;;;;;;19.02;11.88;;;9.40;86.20;;;;;;2519776;23;20003;-71
2022/04/13 04:56:19;;;;;;;20.88;12.90;;;9.40;85.10;;;;;;2519285;23;20015;-71
2022/04/13 04:57:20;;;;;;;21.15;12.30;;;9.50;85.20;;;;;;2519510;23;20427;-71
2022/04/13 04:58:20;;;;;;;20.45;12.07;;;9.50;85.20;;;;;;2519846;23;20469;-71
2022/04/13 04:59:21;;;;;;;20.08;12.40;;;9.60;85.40;;;;;;2519821;23;20029;-71
2022/04/13 05:00:22;;;;;;;20.40;12.13;;;9.60;85.20;;;;;;2519364;23;20015;-72
2022/04/13 05:01:23;;;;;;;20.33;12.05;;;9.70;84.60;;;;;;2520054;23;20463;-72
2022/04/13 05:02:27;;;;;;;23.88;11.98;;;9.80;84.40;;;;;;2519887;23;20017;-73
2022/04/13 05:03:28;;;;;;;20.25;12.05;;;9.90;82.10;;;;;;2519110;23;20011;-72
2022/04/13 05:04:28;;;;;;;21.52;12.27;;;9.90;82.10;;;;;;2520051;23;20042;-72
2022/04/13 05:05:29;;;;;;;23.13;12.23;;;10.00;80.60;;;;;;2519601;23;20014;-71
2022/04/13 05:06:31;;;;;;;19.60;12.15;;;10.10;79.70;;;;;;2507392;23;20011;-72
2022/04/13 05:07:32;;;;;;;19.98;12.48;;;10.10;80.20;;;;;;2497229;23;20007;-73
2022/04/13 05:08:32;;;;;;;19.85;12.32;;;10.20;78.90;;;;;;2507559;23;20013;-70
2022/04/13 05:09:33;;;;;;;20.60;12.10;;;10.30;78.40;;;;;;2520133;23;20097;-71
2022/04/13 05:10:33;;;;;;;18.88;11.98;;;10.40;77.30;;;;;;2519976;23;20010;-71
2022/04/13 05:11:34;;;;;;;19.33;11.52;;;10.60;76.80;;;;;;2519846;23;20081;-70
2022/04/13 05:12:51;;;;;;;18.30;11.73;;;10.70;75.40;;;;;;2519919;23;20550;-71
2022/04/13 05:13:52;;;;;;;19.35;11.80;;;10.90;73.40;;;;;;2518122;23;20018;-72
2022/04/13 05:14:54;;;;;;;21.63;11.98;;;11.00;72.90;;;;;;2519339;23;20073;-72
2022/04/13 05:15:55;;;;;;;20.10;12.55;;;11.20;72.10;;;;;;2520005;23;20051;-71